sensor_id;sensor_type;location;lat;lon;timestamp;P1;durP1;ratioP1;P2;durP2;ratioP2
7883;SDS011;3987;51.458;7.238;2023-04-24T00:06:53;0.60;;;0.60;;
7883;SDS011;3987;51.458;7.238;2023-04-24T00:21:57;0.80;;;0.80;;
7883;SDS011;3987;51.458;7.238;2023-04-24T00:36:57;1.07;;;1.07;;
7883;SDS011;3987;51.458;7.238;2023-04-24T00:51:57;1.23;;;1.23;;
7883;SDS011;3987;51.458;7.238;2023-04-24T01:06:59;1.30;;;1.30;;
7883;SDS011;3987;51.458;7.238;2023-04-24T01:22:01;1.60;;;1.60;;
7883;SDS011;3987;51.458;7.238;2023-04-24T01:37:03;1.87;;;1.87;;
7883;SDS011;3987;51.458;7.238;2023-04-24T01:52:05;2.63;;;2.53;;
7883;SDS011;3987;51.458;7.238;2023-04-24T02:07:05;2.20;;;2.10;;
7883;SDS011;3987;51.458;7.238;2023-04-24T02:22:06;4.47;;;4.27;;
7883;SDS011;3987;51.458;7.238;2023-04-24T02:37:08;6.90;;;6.40;;
7883;SDS011;3987;51.458;7.238;2023-04-24T02:52:10;8.73;;;8.13;;
7883;SDS011;3987;51.458;7.238;2023-04-24T03:07:10;8.57;;;8.00;;
7883;SDS011;3987;51.458;7.238;2023-04-24T03:22:11;10.30;;;9.30;;
7883;SDS011;3987;51.458;7.238;2023-04-24T03:37:13;9.90;;;9.20;;
7883;SDS011;3987;51.458;7.238;2023-04-24T03:52:18;11.10;;;10.17;;
7883;SDS011;3987;51.458;7.238;2023-04-24T04:07:19;13.00;;;11.80;;
7883;SDS011;3987;51.458;7.238;2023-04-24T04:22:20;12.70;;;11.60;;
7883;SDS011;3987;51.458;7.238;2023-04-24T04:37:24;12.50;;;11.63;;
7883;SDS011;3987;51.458;7.238;2023-04-24T04:52:33;12.17;;;11.17;;
7883;SDS011;3987;51.458;7.238;2023-04-24T05:07:45;13.63;;;10.80;;
7883;SDS011;3987;51.458;7.238;2023-04-24T05:22:45;11.57;;;10.40;;
7883;SDS011;3987;51.458;7.238;2023-04-24T05:37:48;11.37;;;10.27;;
7883;SDS011;3987;51.458;7.238;2023-04-24T05:52:49;11.40;;;10.40;;
7883;SDS011;3987;51.458;7.238;2023-04-24T06:07:59;12.50;;;11.57;;
7883;SDS011;3987;51.458;7.238;2023-04-24T06:23:05;11.03;;;10.27;;
7883;SDS011;3987;51.458;7.238;2023-04-24T06:38:07;8.83;;;8.33;;
7883;SDS011;3987;51.458;7.238;2023-04-24T06:53:08;8.67;;;8.00;;
7883;SDS011;3987;51.458;7.238;2023-04-24T07:08:11;7.53;;;7.13;;
7883;SDS011;3987;51.458;7.238;2023-04-24T07:23:11;6.23;;;5.97;;
7883;SDS011;3987;51.458;7.238;2023-04-24T07:38:11;3.20;;;3.00;;
7883;SDS011;3987;51.458;7.238;2023-04-24T07:53:12;4.22;;;4.00;;
7883;SDS011;3987;51.458;7.238;2023-04-24T08:08:13;1.70;;;1.60;;
7883;SDS011;3987;51.458;7.238;2023-04-24T08:23:13;0.50;;;0.50;;
7883;SDS011;3987;51.458;7.238;2023-04-24T08:38:14;0.60;;;0.60;;
7883;SDS011;3987;51.458;7.238;2023-04-24T08:53:15;0.97;;;0.90;;
7883;SDS011;3987;51.458;7.238;2023-04-24T09:08:16;1.50;;;1.40;;
7883;SDS011;3987;51.458;7.238;2023-04-24T09:23:18;2.70;;;2.70;;
7883;SDS011;3987;51.458;7.238;2023-04-24T09:38:19;3.00;;;2.80;;
7883;SDS011;3987;51.458;7.238;2023-04-24T09:53:25;4.10;;;3.90;;
7883;SDS011;3987;51.458;7.238;2023-04-24T10:08:26;3.57;;;3.47;;
7883;SDS011;3987;51.458;7.238;2023-04-24T10:23:33;3.47;;;3.47;;
7883;SDS011;3987;51.458;7.238;2023-04-24T10:38:33;5.97;;;5.67;;
7883;SDS011;3987;51.458;7.238;2023-04-24T10:53:35;7.27;;;6.63;;
7883;SDS011;3987;51.458;7.238;2023-04-24T11:08:39;10.90;;;8.43;;
7883;SDS011;3987;51.458;7.238;2023-04-24T11:23:44;12.03;;;7.80;;
7883;SDS011;3987;51.458;7.238;2023-04-24T11:38:45;13.33;;;9.00;;
7883;SDS011;3987;51.458;7.238;2023-04-24T11:53:46;11.57;;;9.03;;
7883;SDS011;3987;51.458;7.238;2023-04-24T12:08:48;7.80;;;5.80;;
7883;SDS011;3987;51.458;7.238;2023-04-24T12:23:48;8.70;;;5.40;;
7883;SDS011;3987;51.458;7.238;2023-04-24T12:38:52;8.37;;;5.07;;
7883;SDS011;3987;51.458;7.238;2023-04-24T12:53:53;5.90;;;5.23;;
7883;SDS011;3987;51.458;7.238;2023-04-24T13:08:53;3.93;;;3.50;;
7883;SDS011;3987;51.458;7.238;2023-04-24T13:23:55;3.87;;;3.60;;
7883;SDS011;3987;51.458;7.238;2023-04-24T13:38:56;2.93;;;2.73;;
7883;SDS011;3987;51.458;7.238;2023-04-24T13:53:56;2.77;;;1.90;;
7883;SDS011;3987;51.458;7.238;2023-04-24T14:08:56;2.37;;;2.23;;
7883;SDS011;3987;51.458;7.238;2023-04-24T14:23:57;2.80;;;1.40;;
7883;SDS011;3987;51.458;7.238;2023-04-24T14:38:57;1.60;;;1.60;;
7883;SDS011;3987;51.458;7.238;2023-04-24T14:53:58;1.63;;;1.63;;
7883;SDS011;3987;51.458;7.238;2023-04-24T15:08:58;2.67;;;2.57;;
7883;SDS011;3987;51.458;7.238;2023-04-24T15:23:59;2.73;;;2.63;;
7883;SDS011;3987;51.458;7.238;2023-04-24T15:39:00;2.97;;;2.77;;
7883;SDS011;3987;51.458;7.238;2023-04-24T15:54:01;2.00;;;2.00;;
7883;SDS011;3987;51.458;7.238;2023-04-24T16:09:02;2.30;;;2.10;;
7883;SDS011;3987;51.458;7.238;2023-04-24T16:24:02;1.80;;;1.80;;
7883;SDS011;3987;51.458;7.238;2023-04-24T16:39:04;1.87;;;1.70;;
7883;SDS011;3987;51.458;7.238;2023-04-24T16:54:04;1.77;;;1.67;;
7883;SDS011;3987;51.458;7.238;2023-04-24T17:09:05;1.70;;;1.70;;
7883;SDS011;3987;51.458;7.238;2023-04-24T17:24:05;2.20;;;2.10;;
7883;SDS011;3987;51.458;7.238;2023-04-24T17:39:06;2.50;;;2.30;;
7883;SDS011;3987;51.458;7.238;2023-04-24T17:54:08;2.83;;;2.70;;
7883;SDS011;3987;51.458;7.238;2023-04-24T18:09:09;3.30;;;3.00;;
7883;SDS011;3987;51.458;7.238;2023-04-24T18:24:10;3.53;;;3.37;;
7883;SDS011;3987;51.458;7.238;2023-04-24T18:39:11;4.63;;;3.53;;
7883;SDS011;3987;51.458;7.238;2023-04-24T18:54:12;3.10;;;3.00;;
7883;SDS011;3987;51.458;7.238;2023-04-24T19:09:13;3.30;;;3.10;;
7883;SDS011;3987;51.458;7.238;2023-04-24T19:24:13;4.40;;;3.93;;
7883;SDS011;3987;51.458;7.238;2023-04-24T19:39:14;4.50;;;4.10;;
7883;SDS011;3987;51.458;7.238;2023-04-24T19:54:15;4.05;;;3.78;;
7883;SDS011;3987;51.458;7.238;2023-04-24T20:09:15;5.70;;;4.53;;
7883;SDS011;3987;51.458;7.238;2023-04-24T20:24:16;5.57;;;5.03;;
7883;SDS011;3987;51.458;7.238;2023-04-24T20:39:17;5.20;;;4.63;;
7883;SDS011;3987;51.458;7.238;2023-04-24T20:54:18;9.03;;;4.57;;
7883;SDS011;3987;51.458;7.238;2023-04-24T21:09:18;4.93;;;4.37;;
7883;SDS011;3987;51.458;7.238;2023-04-24T21:24:19;6.93;;;4.70;;
7883;SDS011;3987;51.458;7.238;2023-04-24T21:39:19;6.10;;;5.00;;
7883;SDS011;3987;51.458;7.238;2023-04-24T21:54:20;15.10;;;6.50;;
7883;SDS011;3987;51.458;7.238;2023-04-24T22:09:20;12.63;;;7.00;;
7883;SDS011;3987;51.458;7.238;2023-04-24T22:24:21;9.43;;;6.67;;
7883;SDS011;3987;51.458;7.238;2023-04-24T22:39:21;11.93;;;6.87;;
7883;SDS011;3987;51.458;7.238;2023-04-24T22:54:21;7.80;;;7.10;;
7883;SDS011;3987;51.458;7.238;2023-04-24T23:09:22;11.67;;;6.90;;
7883;SDS011;3987;51.458;7.238;2023-04-24T23:24:22;14.87;;;7.60;;
7883;SDS011;3987;51.458;7.238;2023-04-24T23:39:23;12.67;;;7.97;;
7883;SDS011;3987;51.458;7.238;2023-04-24T23:54:23;12.60;;;7.67;;
